Time;durP1;ratioP1;P1;durP2;ratioP2;P2;SDS_P1;SDS_P2;PMS_P1;PMS_P2;Temp;Humidity;BMP_temperature;BMP_pressure;BME280_temperature;BME280_humidity;BME280_pressure;Samples;Min_cycle;Max_cycle;Signal;HPM_P1;HPM_P2
2023/08/18 00:00:29;;;;;;;8.82;8.02;;;;;;;;;;5074123;28;20234;-92
2023/08/18 00:02:58;;;;;;;9.27;8.18;;;;;;;;;;5075414;28;20198;-92
2023/08/18 00:05:26;;;;;;;9.27;8.18;;;;;;;;;;5073909;28;20266;-90
2023/08/18 00:07:53;;;;;;;10.18;8.25;;;;;;;;;;5074184;28;20552;-91
2023/08/18 00:10:20;;;;;;;9.60;7.97;;;;;;;;;;5073549;28;20276;-92
2023/08/18 00:12:47;;;;;;;9.32;8.43;;;;;;;;;;5073722;28;20218;-93
2023/08/18 00:15:15;;;;;;;9.27;8.20;;;;;;;;;;5074314;28;20225;-92
2023/08/18 00:17:42;;;;;;;11.43;8.80;;;;;;;;;;5086984;28;20770;-91
2023/08/18 00:20:12;;;;;;;10.75;8.48;;;;;;;;;;5093674;28;20189;-91
2023/08/18 00:22:39;;;;;;;10.95;8.48;;;;;;;;;;5094130;28;20217;-91
2023/08/18 00:25:07;;;;;;;8.95;8.10;;;;;;;;;;5093960;28;20245;-92
2023/08/18 00:27:36;;;;;;;9.63;8.05;;;;;;;;;;5092945;28;20659;-91
2023/08/18 00:30:03;;;;;;;9.23;8.25;;;;;;;;;;5093835;28;20562;-91
2023/08/18 00:32:31;;;;;;;9.70;8.35;;;;;;;;;;5098178;28;20562;-93
2023/08/18 00:34:58;;;;;;;11.90;8.88;;;;;;;;;;5097897;28;20222;-91
2023/08/18 00:37:27;;;;;;;9.27;8.48;;;;;;;;;;5098090;28;20196;-92
2023/08/18 00:39:54;;;;;;;10.80;8.30;;;;;;;;;;5098202;28;20203;-92
2023/08/18 00:42:22;;;;;;;9.85;8.30;;;;;;;;;;5097998;28;20266;-91
2023/08/18 00:44:49;;;;;;;10.55;8.32;;;;;;;;;;5098054;28;20214;-90
2023/08/18 00:47:16;;;;;;;9.02;8.02;;;;;;;;;;5097732;28;20226;-91
2023/08/18 00:49:44;;;;;;;10.20;8.30;;;;;;;;;;5096927;28;20198;-91
2023/08/18 00:52:11;;;;;;;11.52;8.32;;;;;;;;;;5098368;28;20199;-92
2023/08/18 00:54:40;;;;;;;9.25;8.35;;;;;;;;;;5097513;28;20226;-91
2023/08/18 00:57:07;;;;;;;9.55;8.20;;;;;;;;;;5096909;28;20237;-92
2023/08/18 00:59:35;;;;;;;10.52;7.90;;;;;;;;;;5097299;28;20207;-91
2023/08/18 01:02:03;;;;;;;8.68;7.80;;;;;;;;;;5096808;28;20198;-92
2023/08/18 01:04:31;;;;;;;8.95;8.10;;;;;;;;;;5097509;28;20195;-90
2023/08/18 01:06:58;;;;;;;9.15;8.13;;;;;;;;;;5097271;28;20209;-92
2023/08/18 01:09:26;;;;;;;9.15;8.05;;;;;;;;;;5096911;28;20269;-91
2023/08/18 01:11:59;;;;;;;10.05;8.52;;;;;;;;;;5097215;28;20225;-91
2023/08/18 01:14:30;;;;;;;9.30;8.40;;;;;;;;;;5096683;28;20201;-91
2023/08/18 01:17:00;;;;;;;9.00;8.07;;;;;;;;;;5096806;28;20638;-91
2023/08/18 01:19:28;;;;;;;9.25;8.13;;;;;;;;;;5096976;28;20265;-91
2023/08/18 01:21:58;;;;;;;10.32;8.70;;;;;;;;;;5096489;28;20285;-92
2023/08/18 01:24:27;;;;;;;8.93;7.40;;;;;;;;;;5096385;28;20225;-91
2023/08/18 01:26:54;;;;;;;10.18;8.18;;;;;;;;;;5095939;28;20293;-91
2023/08/18 01:29:22;;;;;;;10.57;8.30;;;;;;;;;;5096468;28;20265;-91
2023/08/18 01:31:52;;;;;;;8.68;7.30;;;;;;;;;;5096043;28;20625;-91
2023/08/18 01:34:20;;;;;;;8.60;7.75;;;;;;;;;;5096259;28;20627;-92
2023/08/18 01:36:47;;;;;;;9.18;7.63;;;;;;;;;;5096360;28;20249;-92
2023/08/18 01:39:15;;;;;;;8.90;7.97;;;;;;;;;;5096213;28;20286;-91
2023/08/18 01:41:44;;;;;;;8.80;7.90;;;;;;;;;;5095504;28;20187;-91
2023/08/18 01:44:15;;;;;;;8.73;7.78;;;;;;;;;;5095812;28;20233;-91
2023/08/18 01:46:42;;;;;;;9.15;7.85;;;;;;;;;;5096122;28;20187;-91
2023/08/18 01:49:10;;;;;;;8.77;7.93;;;;;;;;;;5096416;28;20233;-92
2023/08/18 01:51:37;;;;;;;8.55;7.65;;;;;;;;;;5095654;28;20236;-91
2023/08/18 01:54:05;;;;;;;8.70;7.80;;;;;;;;;;5095388;28;20729;-91
2023/08/18 01:56:32;;;;;;;9.88;7.93;;;;;;;;;;5096028;28;20309;-91
2023/08/18 01:59:01;;;;;;;11.43;7.72;;;;;;;;;;5096460;28;20290;-92
2023/08/18 02:01:28;;;;;;;8.55;7.70;;;;;;;;;;5095997;28;20187;-92
2023/08/18 02:03:55;;;;;;;10.60;7.50;;;;;;;;;;5096340;28;20281;-91
2023/08/18 02:06:22;;;;;;;8.77;7.70;;;;;;;;;;5096266;28;20595;-91
2023/08/18 02:08:50;;;;;;;8.68;7.78;;;;;;;;;;5095849;28;20643;-92
2023/08/18 02:11:17;;;;;;;8.25;7.45;;;;;;;;;;5082899;28;20227;-91
2023/08/18 02:13:44;;;;;;;8.70;7.88;;;;;;;;;;5075909;28;20282;-91
2023/08/18 02:16:13;;;;;;;8.60;6.97;;;;;;;;;;5076182;28;20318;-90
2023/08/18 02:18:41;;;;;;;9.45;8.50;;;;;;;;;;5096783;28;20206;-90
2023/08/18 02:21:08;;;;;;;8.65;7.63;;;;;;;;;;5096309;28;20222;-92
2023/08/18 02:23:35;;;;;;;9.25;7.90;;;;;;;;;;5095325;28;20202;-92
2023/08/18 02:26:04;;;;;;;7.82;7.03;;;;;;;;;;5094157;28;20240;-91
2023/08/18 02:28:31;;;;;;;8.13;7.32;;;;;;;;;;5096122;28;20296;-92
2023/08/18 02:31:00;;;;;;;8.88;8.02;;;;;;;;;;5095697;28;20269;-90
2023/08/18 02:33:29;;;;;;;10.30;7.68;;;;;;;;;;5096492;28;20222;-91
2023/08/18 02:35:58;;;;;;;9.32;7.75;;;;;;;;;;5095693;27;20286;-91
2023/08/18 02:38:26;;;;;;;10.15;7.88;;;;;;;;;;5096330;28;20194;-91
2023/08/18 02:40:53;;;;;;;8.80;7.90;;;;;;;;;;5095729;28;20221;-91
2023/08/18 02:43:20;;;;;;;11.27;8.35;;;;;;;;;;5095796;28;20285;-90
2023/08/18 02:45:47;;;;;;;10.23;7.72;;;;;;;;;;5095154;28;20205;-90
2023/08/18 02:48:15;;;;;;;10.98;7.90;;;;;;;;;;5094943;28;20226;-90
2023/08/18 02:50:43;;;;;;;9.57;8.20;;;;;;;;;;5094666;28;20273;-90
2023/08/18 02:53:10;;;;;;;8.88;7.95;;;;;;;;;;5093755;28;20321;-90
2023/08/18 02:55:39;;;;;;;9.88;7.88;;;;;;;;;;5094618;28;20297;-91
2023/08/18 02:58:07;;;;;;;8.38;7.47;;;;;;;;;;5094636;28;20282;-90
2023/08/18 03:00:36;;;;;;;10.45;7.78;;;;;;;;;;5094605;28;20586;-91
2023/08/18 03:03:03;;;;;;;12.43;8.10;;;;;;;;;;5094464;28;20245;-91
2023/08/18 03:05:31;;;;;;;8.93;8.13;;;;;;;;;;5093571;28;20286;-90
2023/08/18 03:07:59;;;;;;;8.70;7.90;;;;;;;;;;5094047;28;20289;-90
2023/08/18 03:10:26;;;;;;;10.80;7.68;;;;;;;;;;5093254;28;20203;-90
2023/08/18 03:12:54;;;;;;;9.38;8.02;;;;;;;;;;5094045;28;20233;-91
2023/08/18 03:15:21;;;;;;;8.82;7.93;;;;;;;;;;5094372;28;20657;-90
2023/08/18 03:17:50;;;;;;;11.20;8.55;;;;;;;;;;5079969;28;20253;-90
2023/08/18 03:20:19;;;;;;;8.93;8.00;;;;;;;;;;5073550;28;20278;-91
2023/08/18 03:22:46;;;;;;;9.52;8.48;;;;;;;;;;5073734;28;20192;-90
2023/08/18 03:25:15;;;;;;;8.13;7.43;;;;;;;;;;5074768;28;20259;-91
2023/08/18 03:27:42;;;;;;;9.00;7.75;;;;;;;;;;5078074;28;20256;-90
2023/08/18 03:30:11;;;;;;;9.43;8.52;;;;;;;;;;5077898;28;20219;-91
2023/08/18 03:32:38;;;;;;;9.80;8.43;;;;;;;;;;5074404;28;20194;-91
2023/08/18 03:35:06;;;;;;;8.85;7.97;;;;;;;;;;5073953;28;20207;-90
2023/08/18 03:37:33;;;;;;;10.00;8.15;;;;;;;;;;5073679;28;20242;-90
2023/08/18 03:40:03;;;;;;;9.27;8.35;;;;;;;;;;5073314;28;20707;-91
2023/08/18 03:42:31;;;;;;;8.48;7.55;;;;;;;;;;5073717;28;20193;-91
2023/08/18 03:44:59;;;;;;;9.82;7.75;;;;;;;;;;5073964;28;20289;-90
2023/08/18 03:47:26;;;;;;;9.00;8.15;;;;;;;;;;5073879;28;20229;-90
2023/08/18 03:49:54;;;;;;;9.38;8.07;;;;;;;;;;5073669;28;20286;-91
2023/08/18 03:52:21;;;;;;;8.90;8.00;;;;;;;;;;5073416;28;20296;-90
2023/08/18 03:54:48;;;;;;;10.93;8.25;;;;;;;;;;5074144;28;20275;-90
2023/08/18 03:57:15;;;;;;;9.48;8.13;;;;;;;;;;5073399;28;20233;-90
2023/08/18 03:59:45;;;;;;;9.20;8.30;;;;;;;;;;5073582;28;20195;-90
2023/08/18 04:02:12;;;;;;;8.88;8.07;;;;;;;;;;5073666;28;20282;-90
2023/08/18 04:04:39;;;;;;;8.98;8.10;;;;;;;;;;5073149;28;20694;-90
2023/08/18 04:07:07;;;;;;;12.10;8.20;;;;;;;;;;5077609;28;20222;-90
2023/08/18 04:09:34;;;;;;;9.18;8.13;;;;;;;;;;5077686;28;20187;-90
2023/08/18 04:12:01;;;;;;;9.25;8.35;;;;;;;;;;5077489;28;20226;-90
2023/08/18 04:14:29;;;;;;;8.77;7.82;;;;;;;;;;5077730;28;20808;-91
2023/08/18 04:16:57;;;;;;;8.70;7.80;;;;;;;;;;5084147;28;20237;-91
2023/08/18 04:19:25;;;;;;;8.57;7.68;;;;;;;;;;5097488;28;20202;-91
2023/08/18 04:21:53;;;;;;;10.55;8.18;;;;;;;;;;5097830;28;20278;-90
2023/08/18 04:24:21;;;;;;;10.45;8.35;;;;;;;;;;5097626;28;20290;-91
2023/08/18 04:26:48;;;;;;;8.45;7.63;;;;;;;;;;5097401;28;20191;-91
2023/08/18 04:29:15;;;;;;;8.77;7.90;;;;;;;;;;5097565;28;20277;-91
2023/08/18 04:31:43;;;;;;;11.18;8.85;;;;;;;;;;5097211;28;20633;-91
2023/08/18 04:34:11;;;;;;;9.32;8.25;;;;;;;;;;5097544;28;20634;-90
2023/08/18 04:36:38;;;;;;;9.75;8.75;;;;;;;;;;5097083;28;20313;-90
2023/08/18 04:39:06;;;;;;;9.57;8.40;;;;;;;;;;5097456;28;20681;-91
2023/08/18 04:41:33;;;;;;;9.48;8.27;;;;;;;;;;5097416;28;20635;-91
2023/08/18 04:44:01;;;;;;;9.57;8.30;;;;;;;;;;5097219;28;20282;-90
2023/08/18 04:46:28;;;;;;;9.60;8.57;;;;;;;;;;5097559;28;20273;-90
2023/08/18 04:48:55;;;;;;;10.35;8.27;;;;;;;;;;5096884;28;20562;-90
2023/08/18 04:51:24;;;;;;;9.93;8.68;;;;;;;;;;5097169;28;20186;-90
2023/08/18 04:53:51;;;;;;;11.05;8.25;;;;;;;;;;5096524;28;20237;-90
2023/08/18 04:56:19;;;;;;;9.13;8.23;;;;;;;;;;5097584;28;20238;-90
2023/08/18 04:58:58;;;;;;;8.77;7.65;;;;;;;;;;5097638;28;20686;-90
2023/08/18 05:01:25;;;;;;;9.57;8.50;;;;;;;;;;5097369;28;20752;-90
2023/08/18 05:03:52;;;;;;;10.70;8.43;;;;;;;;;;5097250;28;20241;-90
2023/08/18 05:06:19;;;;;;;9.35;8.35;;;;;;;;;;5098468;28;20262;-90
2023/08/18 05:08:49;;;;;;;11.20;8.38;;;;;;;;;;5099417;28;20195;-91
2023/08/18 05:11:16;;;;;;;9.73;8.73;;;;;;;;;;5097635;28;20187;-91
2023/08/18 05:13:44;;;;;;;10.90;8.05;;;;;;;;;;5097317;28;20210;-90
2023/08/18 05:16:11;;;;;;;10.57;8.35;;;;;;;;;;5096527;28;20254;-89
2023/08/18 05:18:38;;;;;;;8.30;7.45;;;;;;;;;;5096951;27;20221;-90
2023/08/18 05:21:06;;;;;;;8.75;7.95;;;;;;;;;;5096691;28;20778;-91
2023/08/18 05:23:33;;;;;;;9.73;8.60;;;;;;;;;;5097157;28;20273;-90
2023/08/18 05:26:02;;;;;;;10.20;8.65;;;;;;;;;;5097118;28;20194;-90
2023/08/18 05:28:31;;;;;;;10.77;8.73;;;;;;;;;;5096751;28;20626;-90
2023/08/18 05:30:58;;;;;;;9.88;8.55;;;;;;;;;;5096497;28;20686;-90
2023/08/18 05:33:25;;;;;;;9.75;8.43;;;;;;;;;;5096740;28;20315;-90
2023/08/18 05:35:53;;;;;;;9.85;8.65;;;;;;;;;;5097703;28;20230;-90
2023/08/18 05:38:20;;;;;;;10.02;9.02;;;;;;;;;;5097389;28;20226;-90
2023/08/18 05:40:49;;;;;;;10.00;8.95;;;;;;;;;;5098860;28;20281;-90
2023/08/18 05:43:19;;;;;;;8.95;8.10;;;;;;;;;;5098244;28;20199;-91
2023/08/18 05:45:48;;;;;;;9.90;8.80;;;;;;;;;;5098541;28;20187;-93
2023/08/18 05:48:15;;;;;;;10.95;8.48;;;;;;;;;;5096713;28;20206;-90
2023/08/18 05:50:43;;;;;;;11.27;8.73;;;;;;;;;;5097900;28;20273;-90
2023/08/18 05:53:10;;;;;;;9.95;8.20;;;;;;;;;;5096280;28;20230;-90
2023/08/18 05:55:37;;;;;;;10.07;8.02;;;;;;;;;;5097772;28;20334;-90
2023/08/18 05:58:05;;;;;;;11.18;8.00;;;;;;;;;;5097580;28;20241;-91
2023/08/18 06:00:34;;;;;;;8.77;7.88;;;;;;;;;;5096654;28;20637;-90
2023/08/18 06:03:02;;;;;;;9.93;8.77;;;;;;;;;;5097410;28;20285;-91
2023/08/18 06:05:29;;;;;;;9.15;8.35;;;;;;;;;;5098289;28;20194;-90
2023/08/18 06:07:57;;;;;;;9.38;8.43;;;;;;;;;;5098349;28;20247;-90
2023/08/18 06:10:25;;;;;;;9.20;8.13;;;;;;;;;;5096992;28;20294;-91
2023/08/18 06:12:52;;;;;;;10.70;8.27;;;;;;;;;;5096877;28;20199;-90
2023/08/18 06:15:19;;;;;;;9.23;8.32;;;;;;;;;;5097130;28;20187;-90
2023/08/18 06:17:49;;;;;;;9.52;8.23;;;;;;;;;;5097372;27;20234;-90
2023/08/18 06:20:16;;;;;;;8.77;7.90;;;;;;;;;;5096784;28;20194;-89
2023/08/18 06:22:44;;;;;;;9.43;8.52;;;;;;;;;;5097044;28;20712;-89
2023/08/18 06:25:12;;;;;;;9.40;8.50;;;;;;;;;;5096796;28;20233;-90
2023/08/18 06:27:40;;;;;;;9.75;8.75;;;;;;;;;;5095663;28;20792;-89
2023/08/18 06:30:08;;;;;;;9.52;8.45;;;;;;;;;;5097937;28;20224;-90
2023/08/18 06:32:35;;;;;;;9.88;7.97;;;;;;;;;;5096819;28;20244;-90
2023/08/18 06:35:04;;;;;;;10.82;8.60;;;;;;;;;;5097023;28;20282;-90
2023/08/18 06:37:32;;;;;;;8.52;7.63;;;;;;;;;;5096366;28;20305;-90
2023/08/18 06:39:59;;;;;;;10.25;9.10;;;;;;;;;;5096520;28;20286;-90
2023/08/18 06:42:27;;;;;;;10.52;8.02;;;;;;;;;;5096218;28;20723;-90
2023/08/18 06:44:54;;;;;;;9.40;7.85;;;;;;;;;;5096049;28;20278;-90
2023/08/18 06:47:22;;;;;;;9.32;8.13;;;;;;;;;;5097221;28;20212;-90
2023/08/18 06:49:50;;;;;;;9.18;8.00;;;;;;;;;;5097498;28;20251;-91
2023/08/18 06:52:19;;;;;;;9.70;7.90;;;;;;;;;;5096657;28;20277;-90
2023/08/18 06:54:47;;;;;;;8.63;7.82;;;;;;;;;;5097250;28;20655;-91
2023/08/18 06:57:14;;;;;;;10.15;7.97;;;;;;;;;;5094842;28;20221;-91
2023/08/18 06:59:42;;;;;;;11.15;7.97;;;;;;;;;;5094249;28;20186;-90
2023/08/18 07:02:09;;;;;;;9.30;7.93;;;;;;;;;;5094551;28;20247;-90
2023/08/18 07:04:36;;;;;;;10.27;7.80;;;;;;;;;;5094742;28;20285;-90
2023/08/18 07:07:04;;;;;;;8.85;7.47;;;;;;;;;;5094304;28;20194;-90
2023/08/18 07:09:33;;;;;;;9.52;7.82;;;;;;;;;;5094305;28;20568;-90
2023/08/18 07:12:01;;;;;;;8.60;7.80;;;;;;;;;;5094522;28;20225;-91
2023/08/18 07:14:28;;;;;;;8.50;7.70;;;;;;;;;;5094246;28;20195;-89
2023/08/18 07:16:55;;;;;;;8.25;7.53;;;;;;;;;;5094136;28;20206;-90
2023/08/18 07:19:22;;;;;;;8.82;7.40;;;;;;;;;;5094058;28;20836;-90
2023/08/18 07:21:51;;;;;;;8.50;7.70;;;;;;;;;;5094272;28;20715;-90
2023/08/18 07:24:18;;;;;;;8.07;7.28;;;;;;;;;;5094644;28;20202;-90
2023/08/18 07:26:47;;;;;;;9.40;7.35;;;;;;;;;;5095965;28;20210;-91
2023/08/18 07:29:14;;;;;;;7.78;7.07;;;;;;;;;;5096063;28;20258;-90
2023/08/18 07:31:42;;;;;;;8.38;7.50;;;;;;;;;;5094298;28;20226;-90
2023/08/18 07:34:10;;;;;;;7.88;7.15;;;;;;;;;;5093915;28;20195;-90
2023/08/18 07:36:39;;;;;;;8.05;7.28;;;;;;;;;;5094291;28;20655;-90
2023/08/18 07:39:10;;;;;;;7.60;6.75;;;;;;;;;;5093808;28;20194;-90
2023/08/18 07:41:37;;;;;;;10.23;7.03;;;;;;;;;;5094039;28;20206;-91
2023/08/18 07:44:06;;;;;;;8.25;7.45;;;;;;;;;;5094024;28;20278;-91
2023/08/18 07:46:34;;;;;;;8.15;7.35;;;;;;;;;;5093952;28;20252;-91
2023/08/18 07:49:01;;;;;;;8.98;7.80;;;;;;;;;;5093486;28;20269;-90
2023/08/18 07:51:29;;;;;;;7.65;6.95;;;;;;;;;;5094015;28;20202;-91
2023/08/18 07:53:56;;;;;;;7.43;6.72;;;;;;;;;;5093370;28;20238;-90
2023/08/18 07:56:23;;;;;;;7.75;6.70;;;;;;;;;;5094289;28;20222;-90
2023/08/18 07:58:50;;;;;;;7.10;6.50;;;;;;;;;;5093880;28;20261;-91
2023/08/18 08:01:20;;;;;;;7.40;6.70;;;;;;;;;;5093715;28;20286;-91
2023/08/18 08:03:47;;;;;;;6.95;6.25;;;;;;;;;;5094528;28;20244;-91
2023/08/18 08:06:15;;;;;;;6.82;6.22;;;;;;;;;;5094234;28;20257;-91
2023/08/18 08:08:42;;;;;;;7.45;6.70;;;;;;;;;;5094245;28;20212;-91
2023/08/18 08:11:09;;;;;;;7.35;6.68;;;;;;;;;;5093914;28;20285;-91
2023/08/18 08:13:36;;;;;;;8.60;7.22;;;;;;;;;;5093920;28;20212;-91
2023/08/18 08:16:04;;;;;;;7.82;7.13;;;;;;;;;;5094183;28;20274;-93
2023/08/18 08:18:33;;;;;;;7.60;6.88;;;;;;;;;;5093553;28;20222;-92
2023/08/18 08:21:01;;;;;;;7.60;6.90;;;;;;;;;;5094080;28;20625;-91
2023/08/18 08:23:28;;;;;;;7.78;6.97;;;;;;;;;;5093964;28;20194;-90
2023/08/18 08:25:55;;;;;;;7.18;6.50;;;;;;;;;;5093439;28;20257;-91
2023/08/18 08:28:23;;;;;;;7.40;6.70;;;;;;;;;;5093678;28;20218;-92
2023/08/18 08:30:50;;;;;;;8.38;7.40;;;;;;;;;;5094234;28;20285;-92
2023/08/18 08:33:17;;;;;;;7.40;6.60;;;;;;;;;;5093374;28;20240;-92
2023/08/18 08:35:46;;;;;;;7.05;6.45;;;;;;;;;;5094151;28;20209;-92
2023/08/18 08:38:13;;;;;;;8.48;6.82;;;;;;;;;;5094275;28;20305;-92
2023/08/18 08:40:40;;;;;;;7.18;6.57;;;;;;;;;;5094271;28;20277;-91
2023/08/18 08:43:07;;;;;;;8.57;6.80;;;;;;;;;;5094012;28;20195;-93
2023/08/18 08:45:35;;;;;;;7.53;6.82;;;;;;;;;;5093755;28;20214;-92
2023/08/18 08:48:05;;;;;;;8.25;7.07;;;;;;;;;;5094278;28;20281;-92
2023/08/18 08:50:34;;;;;;;8.10;7.30;;;;;;;;;;5093874;28;20293;-92
2023/08/18 08:53:03;;;;;;;10.13;8.43;;;;;;;;;;5096669;28;20313;-94
2023/08/18 08:55:33;;;;;;;8.43;7.18;;;;;;;;;;5097382;28;20187;-93
2023/08/18 08:58:01;;;;;;;8.48;7.30;;;;;;;;;;5096507;28;20246;-92
2023/08/18 09:00:28;;;;;;;7.53;6.72;;;;;;;;;;5096936;28;20715;-92
2023/08/18 09:02:55;;;;;;;8.18;6.72;;;;;;;;;;5096781;28;20210;-93
2023/08/18 09:05:28;;;;;;;8.00;7.30;;;;;;;;;;5096763;28;20221;-93
2023/08/18 09:07:55;;;;;;;8.85;7.00;;;;;;;;;;5097120;28;20190;-93
2023/08/18 09:10:24;;;;;;;9.10;7.50;;;;;;;;;;5096833;28;20282;-93
2023/08/18 09:12:51;;;;;;;6.97;6.28;;;;;;;;;;5096951;28;20218;-93
2023/08/18 09:15:19;;;;;;;7.63;6.90;;;;;;;;;;5096734;28;20191;-93
2023/08/18 09:17:46;;;;;;;6.85;6.18;;;;;;;;;;5082963;28;20317;-92
2023/08/18 09:20:14;;;;;;;7.53;6.82;;;;;;;;;;5076458;28;20214;-92
2023/08/18 09:22:42;;;;;;;6.88;6.30;;;;;;;;;;5076204;28;20199;-93
2023/08/18 09:25:09;;;;;;;6.78;6.05;;;;;;;;;;5075836;28;20195;-93
2023/08/18 09:27:38;;;;;;;7.75;5.32;;;;;;;;;;5075943;28;20678;-93
2023/08/18 09:30:06;;;;;;;5.78;5.28;;;;;;;;;;5075993;28;20252;-93
2023/08/18 09:32:33;;;;;;;5.95;5.43;;;;;;;;;;5076610;28;20297;-93
2023/08/18 09:35:00;;;;;;;8.13;5.25;;;;;;;;;;5076295;28;20277;-94
2023/08/18 09:37:31;;;;;;;5.85;5.30;;;;;;;;;;5076270;28;20285;-94
2023/08/18 09:39:59;;;;;;;7.32;6.63;;;;;;;;;;5075746;28;20704;-94
2023/08/18 09:42:26;;;;;;;7.43;5.85;;;;;;;;;;5075957;28;20554;-94
2023/08/18 09:44:55;;;;;;;5.88;5.35;;;;;;;;;;5076225;28;20222;-94
2023/08/18 09:47:24;;;;;;;6.72;5.50;;;;;;;;;;5075852;28;20217;-93
2023/08/18 09:49:52;;;;;;;6.20;5.60;;;;;;;;;;5075901;28;20222;-94
2023/08/18 09:52:20;;;;;;;5.68;5.15;;;;;;;;;;5075220;28;20223;-94
2023/08/18 09:54:51;;;;;;;6.32;5.75;;;;;;;;;;5075630;28;20597;-95
2023/08/18 09:57:22;;;;;;;7.10;6.40;;;;;;;;;;5076276;28;20289;-94
2023/08/18 09:59:54;;;;;;;8.35;6.07;;;;;;;;;;5076215;28;20183;-94
2023/08/18 10:02:24;;;;;;;7.07;6.38;;;;;;;;;;5075647;28;20183;-95
2023/08/18 10:04:52;;;;;;;6.25;5.65;;;;;;;;;;5077747;28;20199;-94
2023/08/18 10:07:19;;;;;;;6.28;5.43;;;;;;;;;;5076791;28;20183;-94
2023/08/18 10:09:47;;;;;;;5.72;5.22;;;;;;;;;;5076226;28;20230;-94
2023/08/18 10:12:14;;;;;;;6.28;5.32;;;;;;;;;;5075927;28;20286;-94
2023/08/18 10:14:42;;;;;;;6.35;5.40;;;;;;;;;;5076409;28;20285;-95
2023/08/18 10:17:10;;;;;;;7.97;5.60;;;;;;;;;;5085494;28;20206;-95
2023/08/18 10:19:49;;;;;;;5.22;4.60;;;;;;;;;;5098859;28;20286;-94
2023/08/18 10:22:17;;;;;;;6.80;5.50;;;;;;;;;;5099869;28;20221;-94
2023/08/18 10:24:46;;;;;;;6.43;5.75;;;;;;;;;;5096990;28;20209;-94
2023/08/18 10:27:13;;;;;;;5.88;5.32;;;;;;;;;;5097307;28;20187;-94
2023/08/18 10:29:44;;;;;;;5.57;5.07;;;;;;;;;;5099154;28;20203;-95
2023/08/18 10:32:13;;;;;;;6.30;4.95;;;;;;;;;;5098928;28;20204;-94
2023/08/18 10:34:40;;;;;;;6.03;4.95;;;;;;;;;;5099931;28;20197;-94
2023/08/18 10:37:10;;;;;;;6.85;5.68;;;;;;;;;;5102860;28;20190;-95
2023/08/18 10:39:37;;;;;;;6.20;5.60;;;;;;;;;;5099471;28;20241;-93
2023/08/18 10:42:07;;;;;;;5.78;5.30;;;;;;;;;;5098464;28;20222;-94
2023/08/18 10:44:34;;;;;;;5.95;5.32;;;;;;;;;;5096196;28;20667;-95
2023/08/18 10:47:03;;;;;;;5.45;4.60;;;;;;;;;;5098252;28;20187;-95
2023/08/18 10:49:31;;;;;;;6.38;5.35;;;;;;;;;;5098052;28;20692;-95
2023/08/18 10:51:58;;;;;;;5.68;4.95;;;;;;;;;;5095201;28;20281;-92
2023/08/18 10:54:27;;;;;;;5.72;5.25;;;;;;;;;;5094547;28;20257;-94
2023/08/18 10:56:54;;;;;;;6.88;4.70;;;;;;;;;;5094327;28;20277;-92
2023/08/18 10:59:22;;;;;;;5.90;4.90;;;;;;;;;;5094806;28;20305;-92
2023/08/18 11:01:50;;;;;;;6.93;4.68;;;;;;;;;;5094770;28;20595;-94
2023/08/18 11:04:18;;;;;;;5.25;4.65;;;;;;;;;;5095070;28;20716;-90
2023/08/18 11:06:45;;;;;;;5.05;4.50;;;;;;;;;;5093895;28;20218;-92
2023/08/18 11:09:12;;;;;;;6.18;4.40;;;;;;;;;;5094519;28;20273;-91
2023/08/18 11:11:41;;;;;;;6.93;4.93;;;;;;;;;;5095031;28;20197;-94
2023/08/18 11:14:09;;;;;;;5.30;4.63;;;;;;;;;;5095222;28;20221;-92
2023/08/18 11:16:38;;;;;;;6.00;4.95;;;;;;;;;;5091216;28;20659;-92
2023/08/18 11:19:06;;;;;;;5.47;4.72;;;;;;;;;;5073630;28;20222;-92
2023/08/18 11:21:35;;;;;;;5.10;4.63;;;;;;;;;;5074939;28;20195;-93
2023/08/18 11:24:04;;;;;;;8.75;4.90;;;;;;;;;;5074771;28;20199;-92
2023/08/18 11:26:36;;;;;;;6.28;5.00;;;;;;;;;;5075211;28;20196;-92
2023/08/18 11:29:05;;;;;;;5.20;4.43;;;;;;;;;;5075653;28;20270;-93
2023/08/18 11:31:33;;;;;;;5.15;4.63;;;;;;;;;;5075116;28;20194;-92
2023/08/18 11:34:01;;;;;;;5.97;4.60;;;;;;;;;;5074172;28;20226;-93
2023/08/18 11:36:31;;;;;;;5.10;4.60;;;;;;;;;;5073854;28;20234;-92
2023/08/18 11:39:06;;;;;;;5.78;4.38;;;;;;;;;;5074549;28;20321;-92
2023/08/18 11:41:38;;;;;;;5.82;4.80;;;;;;;;;;5074446;28;20194;-93
2023/08/18 11:44:08;;;;;;;6.35;4.40;;;;;;;;;;5074382;28;20191;-92
2023/08/18 11:46:36;;;;;;;5.20;4.43;;;;;;;;;;5074185;28;20187;-94
2023/08/18 11:49:04;;;;;;;5.00;4.35;;;;;;;;;;5074203;28;20606;-91
2023/08/18 11:51:31;;;;;;;4.30;3.65;;;;;;;;;;5075991;28;20195;-93
2023/08/18 11:53:59;;;;;;;4.80;4.30;;;;;;;;;;5073642;28;20231;-91
2023/08/18 11:56:27;;;;;;;5.80;3.80;;;;;;;;;;5074154;28;20219;-93
2023/08/18 11:58:54;;;;;;;8.27;4.07;;;;;;;;;;5074380;28;20309;-93
2023/08/18 12:01:23;;;;;;;5.00;3.92;;;;;;;;;;5074158;28;20266;-94
2023/08/18 12:03:57;;;;;;;9.05;4.10;;;;;;;;;;5076115;28;20223;-94
2023/08/18 12:06:25;;;;;;;3.92;3.53;;;;;;;;;;5075526;28;20240;-92
2023/08/18 12:08:53;;;;;;;5.20;3.88;;;;;;;;;;5074710;28;20199;-92
2023/08/18 12:11:21;;;;;;;7.25;4.20;;;;;;;;;;5076866;28;20607;-93
2023/08/18 12:13:48;;;;;;;4.60;3.90;;;;;;;;;;5074890;28;20707;-94
2023/08/18 12:16:16;;;;;;;3.72;3.40;;;;;;;;;;5075092;28;20278;-93
2023/08/18 12:18:44;;;;;;;4.18;3.78;;;;;;;;;;5076491;28;20219;-95
2023/08/18 12:21:12;;;;;;;4.13;3.20;;;;;;;;;;5075981;28;20207;-94
2023/08/18 12:23:39;;;;;;;3.53;3.22;;;;;;;;;;5074290;28;20227;-93
2023/08/18 12:26:07;;;;;;;4.22;3.30;;;;;;;;;;5074934;28;20233;-93
2023/08/18 12:28:34;;;;;;;4.10;3.70;;;;;;;;;;5078301;28;20233;-94
2023/08/18 12:31:03;;;;;;;6.30;3.90;;;;;;;;;;5078205;28;20197;-91
2023/08/18 12:33:30;;;;;;;4.35;3.67;;;;;;;;;;5077382;28;20218;-93
2023/08/18 12:35:59;;;;;;;4.40;3.50;;;;;;;;;;5077487;28;20249;-91
2023/08/18 12:38:27;;;;;;;3.42;3.13;;;;;;;;;;5076839;28;20309;-92
2023/08/18 12:40:54;;;;;;;3.30;3.00;;;;;;;;;;5076763;28;20187;-91
2023/08/18 12:43:21;;;;;;;3.67;3.17;;;;;;;;;;5077354;28;20630;-92
2023/08/18 12:45:49;;;;;;;4.20;3.17;;;;;;;;;;5077185;28;20290;-93
2023/08/18 12:48:16;;;;;;;5.13;3.30;;;;;;;;;;5077836;28;20201;-93
2023/08/18 12:50:44;;;;;;;3.25;3.05;;;;;;;;;;5077358;28;20226;-91
2023/08/18 12:53:12;;;;;;;4.82;3.25;;;;;;;;;;5076682;28;20265;-92
2023/08/18 12:55:40;;;;;;;3.28;2.97;;;;;;;;;;5077328;28;20199;-94
2023/08/18 12:58:07;;;;;;;3.47;2.90;;;;;;;;;;5076973;28;21052;-92
2023/08/18 13:00:34;;;;;;;3.88;3.10;;;;;;;;;;5076576;28;20262;-92
2023/08/18 13:03:01;;;;;;;4.50;3.00;;;;;;;;;;5076366;28;20417;-94
2023/08/18 13:05:29;;;;;;;4.00;2.97;;;;;;;;;;5076679;28;20241;-93
2023/08/18 13:07:56;;;;;;;3.70;3.30;;;;;;;;;;5076460;28;20230;-91
2023/08/18 13:10:25;;;;;;;3.97;3.30;;;;;;;;;;5076463;28;20190;-93
2023/08/18 13:12:52;;;;;;;4.43;3.00;;;;;;;;;;5076889;28;20277;-93
2023/08/18 13:15:19;;;;;;;3.78;3.08;;;;;;;;;;5077446;28;20213;-92
2023/08/18 13:17:47;;;;;;;4.13;3.28;;;;;;;;;;5089712;28;20233;-94
2023/08/18 13:20:14;;;;;;;3.83;2.97;;;;;;;;;;5096625;28;20324;-92
2023/08/18 13:22:41;;;;;;;4.60;3.25;;;;;;;;;;5096556;28;20230;-92
2023/08/18 13:25:10;;;;;;;3.25;2.97;;;;;;;;;;5096516;28;20765;-93
2023/08/18 13:27:39;;;;;;;3.47;3.17;;;;;;;;;;5096222;28;20194;-93
2023/08/18 13:30:08;;;;;;;3.10;2.85;;;;;;;;;;5096504;28;20292;-92
2023/08/18 13:32:36;;;;;;;4.97;3.45;;;;;;;;;;5096343;28;20196;-92
2023/08/18 13:35:03;;;;;;;5.55;3.42;;;;;;;;;;5096927;28;20645;-93
2023/08/18 13:37:31;;;;;;;3.55;3.03;;;;;;;;;;5095755;28;20241;-92
2023/08/18 13:39:58;;;;;;;5.38;2.88;;;;;;;;;;5096314;28;20289;-92
2023/08/18 13:42:25;;;;;;;3.35;2.70;;;;;;;;;;5096160;28;20693;-92
2023/08/18 13:44:54;;;;;;;3.78;2.63;;;;;;;;;;5095939;28;20262;-92
2023/08/18 13:47:22;;;;;;;3.45;2.40;;;;;;;;;;5096072;28;20237;-92
2023/08/18 13:49:49;;;;;;;2.85;2.58;;;;;;;;;;5096271;28;20210;-92
2023/08/18 13:52:16;;;;;;;2.95;2.72;;;;;;;;;;5096169;28;20195;-93
2023/08/18 13:54:44;;;;;;;2.83;2.50;;;;;;;;;;5095762;28;20202;-92
2023/08/18 13:57:11;;;;;;;2.83;2.33;;;;;;;;;;5096104;28;20188;-92
2023/08/18 13:59:38;;;;;;;3.45;2.60;;;;;;;;;;5095794;28;20261;-93
2023/08/18 14:02:07;;;;;;;2.92;2.63;;;;;;;;;;5095633;28;20191;-92
2023/08/18 14:04:34;;;;;;;5.07;2.70;;;;;;;;;;5095965;28;20281;-92
2023/08/18 14:07:01;;;;;;;3.60;2.70;;;;;;;;;;5095771;28;20229;-93
2023/08/18 14:09:28;;;;;;;4.15;2.63;;;;;;;;;;5095394;28;20317;-93
2023/08/18 14:11:55;;;;;;;3.22;2.50;;;;;;;;;;5095635;28;20229;-92
2023/08/18 14:14:23;;;;;;;4.72;2.70;;;;;;;;;;5095505;28;20277;-92
2023/08/18 14:16:50;;;;;;;3.45;2.80;;;;;;;;;;5089795;28;20294;-94
2023/08/18 14:19:19;;;;;;;3.22;2.92;;;;;;;;;;5075080;28;20302;-93
2023/08/18 14:21:46;;;;;;;5.90;3.20;;;;;;;;;;5075075;28;20685;-92
2023/08/18 14:24:14;;;;;;;3.50;3.20;;;;;;;;;;5075155;28;20188;-92
2023/08/18 14:26:41;;;;;;;4.35;3.08;;;;;;;;;;5075329;28;20217;-92
2023/08/18 14:29:10;;;;;;;4.68;3.15;;;;;;;;;;5075112;28;20222;-94
2023/08/18 14:31:38;;;;;;;3.17;2.97;;;;;;;;;;5075250;28;20187;-92
2023/08/18 14:34:05;;;;;;;4.35;3.13;;;;;;;;;;5074912;28;20238;-92
2023/08/18 14:36:34;;;;;;;6.38;3.03;;;;;;;;;;5075025;28;20198;-93
2023/08/18 14:39:01;;;;;;;3.30;3.00;;;;;;;;;;5075067;28;20646;-93
2023/08/18 14:41:28;;;;;;;3.58;3.05;;;;;;;;;;5074730;28;20199;-93
2023/08/18 14:43:55;;;;;;;3.22;2.60;;;;;;;;;;5074160;28;20706;-92